VTBU/UTP METAR and TAF weather

Enter ICAO airport designator
Station Type Date Time Source
VTBU METAR 2020/07/14 17:00 UTC NOAA

VTBU 141700Z 21004KT 9999 FEW020 29/25 Q1008 NOSIG


Station Type Date Time Source
VTBU Decoded METAR 2020/07/14 17:00 UTC NOAA

Rayong, Thailand (VTBU) 12-38N 101-21E 5M
Jul 14, 2020 - 01:00 PM EDT / 2020.07.14 1700 UTC
Wind: from the SSW (210 degrees) at 5 MPH (4 KT):0
Visibility: greater than 7 mile(s):0
Sky conditions: mostly clear
Temperature: 84 F (29 C)
Dew Point: 77 F (25 C)
Relative Humidity: 79%
Pressure (altimeter): 29.77 in. Hg (1008 hPa)
ob: VTBU 141700Z 21004KT 9999 FEW020 29/25 Q1008 NOSIG
cycle: 17

Station Type Date Time Source
VTBU TAF 2020/07/14 12:37 UTC NOAA

TAF VTBU 141100Z 1412/1512 22010KT 9999 FEW020
BECMG 1416/1418 36005KT
BECMG 1501/1503 21010KT
TEMPO 1507/1512 VRB14KT 5000 TSRA FEW018CB SCT030 BKN100

Example: see airport list